• Join FlightAware (Why Join?)
  • Login
  • US Flag 
12:46AM EDT


 

Airport Tracker/Info


-or-


 

Live Flight TrackerFlight Track Log ✈ N421SF ✈ 21-Apr-2013 ✈ KTUP - KMEI

Flight Track Log - Related Links

Times and Time Zones

All times are in EDT time to prevent confusion due to time zone crossing. See the N421SF flight status page for this flight to view local times or setup timezone preferences in your user account.

Time Position Orientation Groundspeed Altitude Reporting Facility
EDT Latitude Longitude Course Direction KTS MPH feet Rate Location/Type
05:02PM 34.2758 -88.8164 21° North 37 43 9,000  Level Memphis Center
05:03PM 34.2819 -88.8136 21° North 20 23 9,000 -2,760 Level Memphis Center
05:04PM 34.2003 -88.7950 169° South 173 199 3,500 -2,400 Descending Memphis Center
05:05PM 34.1608 -88.7983 184° South 161 185 4,300 900 Climbing Memphis Center
05:06PM 34.1025 -88.8044 185° South 153 176 5,600 1,080 Climbing Memphis Center
05:07PM 34.0650 -88.8100 187° South 151 174 6,700 960 Climbing Memphis Center
05:08PM 34.0358 -88.8131 185° South 156 180 7,400 900 Climbing Memphis Center
05:09PM 33.9919 -88.8114 178° South 161 185 8,400 1,020 Climbing Memphis Center
05:09PM 33.9794 -88.8142 190° South 153 176 8,700 660 Climbing Memphis Center
05:10PM 33.9481 -88.8097 173° South 161 185 9,100 360 Climbing Memphis Center
05:10PM 33.9314 -88.8100 181° South 165 190 9,100 -120 Level Memphis Center
05:11PM 33.8981 -88.8081 177° South 167 192 9,000 -120 Descending Memphis Center
05:11PM 33.8731 -88.8111 186° South 188 216 9,000  Level Memphis Center
05:12PM 33.8458 -88.8089 176° South 178 205 9,000  Level Memphis Center
05:12PM 33.8228 -88.8069 176° South 185 213 9,000  Level Memphis Center
05:13PM 33.7956 -88.8050 177° South 183 211 9,000  Level Memphis Center
05:13PM 33.7644 -88.8056 181° South 185 213 9,000  Level Memphis Center
05:14PM 33.7433 -88.8033 175° South 183 211 9,000  Level Memphis Center
05:14PM 33.7142 -88.8014 177° South 185 213 9,000  Level Memphis Center
05:15PM 33.6892 -88.7994 176° South 183 211 9,000  Level Memphis Center
05:15PM 33.6619 -88.8022 185° South 188 216 9,000  Level Memphis Center
05:16PM 33.6389 -88.8003 176° South 199 229 9,000  Level Memphis Center
05:17PM 33.5847 -88.7986 179° South 204 235 9,000  Level Memphis Center
05:18PM 33.5367 -88.8019 183° South 196 226 9,000  Level Memphis Center
05:19PM 33.4844 -88.8006 179° South 196 226 9,000  Level Memphis Center
05:20PM 33.4325 -88.7989 178° South 191 220 9,000  Level Memphis Center
05:21PM 33.3803 -88.7950 176° South 191 220 9,000  Level Memphis Center
05:22PM 33.3278 -88.7908 176° South 191 220 9,000  Level Memphis Center
05:23PM 33.2758 -88.7919 181° South 196 226 9,000  Level Memphis Center
05:24PM 33.2236 -88.7878 176° South 196 226 9,000  Level Memphis Center
05:25PM 33.1714 -88.7861 178° South 196 226 9,000  Level Memphis Center
05:26PM 33.1211 -88.7872 181° South 196 226 9,000  Level Memphis Center
05:27PM 33.0689 -88.7856 178° South 196 226 9,000  Level Memphis Center
05:28PM 33.0167 -88.7817 176° South 196 226 9,000 -300 Level Memphis Center
05:29PM 32.9644 -88.7800 178° South 196 226 8,400 -600 Descending Memphis Center
05:30PM 32.9081 -88.7786 179° South 196 226 7,900 -600 Descending Memphis Center
05:31PM 32.8517 -88.7769 179° South 196 226 7,300 -600 Descending Memphis Center
05:32PM 32.7953 -88.7731 177° South 201 231 6,800 -600 Descending Memphis Center
05:33PM 32.7369 -88.7692 177° South 201 231 6,200 -840 Descending Memphis Center
05:34PM 32.6806 -88.7703 181° South 201 231 5,200 -960 Descending Memphis Center
05:35PM 32.6219 -88.7689 179° South 206 237 4,300 -780 Descending Memphis Center
05:36PM 32.5678 -88.7697 181° South 206 237 3,700 -600 Descending Memphis Center
05:37PM 32.5114 -88.7708 181° South 206 237 3,100 -600 Descending Memphis Center
05:38PM 32.4489 -88.7719 181° South 206 237 2,600 -540 Descending Memphis Center
05:44PM 32.3599 -88.7500 180° South  Level FlightAware Approximate
05:51PM 32.3326 -88.7519 North  Level Estimated
05:52PM 32.3326 -88.7519 North  Level Estimated
05:53PM 32.3326 -88.7519 North  Level Estimated
05:54PM 32.3326 -88.7519 North  Level Estimated
05:55PM 32.3326 -88.7519 North  Level Estimated
05:56PM 32.3326 -88.7519 North  Level Estimated
05:57PM 32.3326 -88.7519 North  Level Estimated
05:58PM 32.3326 -88.7519 North  Level Estimated
05:59PM 32.3326 -88.7519 North  Level Estimated
06:00PM 32.3326 -88.7519 North  Level Estimated